Time;durP1;ratioP1;P1;durP2;ratioP2;P2;SDS_P1;SDS_P2;PMS_P1;PMS_P2;Temp;Humidity;BMP_temperature;BMP_pressure;BME280_temperature;BME280_humidity;BME280_pressure;Samples;Min_cycle;Max_cycle;Signal;HPM_P1;HPM_P2
2023/07/31 00:01:02;;;;;;;20.88;5.18;;;;;;;20.85;81.21;101037.56;5012010;28;20049;-44
2023/07/31 00:03:27;;;;;;;17.83;4.55;;;;;;;20.98;80.97;101031.03;5012110;28;20077;-45
2023/07/31 00:05:52;;;;;;;18.95;4.90;;;;;;;20.89;80.89;101032.13;5012259;28;20488;-48
2023/07/31 00:08:18;;;;;;;17.92;4.50;;;;;;;21.02;80.25;101030.03;5012584;28;20403;-47
2023/07/31 00:10:43;;;;;;;21.10;5.20;;;;;;;20.97;81.05;101039.88;5011760;28;20058;-47
2023/07/31 00:13:08;;;;;;;22.42;5.05;;;;;;;20.42;83.15;101040.44;5011936;28;20206;-44
2023/07/31 00:15:34;;;;;;;23.48;4.90;;;;;;;20.69;82.19;101038.84;5011731;28;20449;-47
2023/07/31 00:18:00;;;;;;;19.77;5.03;;;;;;;20.74;81.76;101029.88;5012322;28;20042;-46
2023/07/31 00:20:26;;;;;;;16.55;4.38;;;;;;;21.13;80.69;101037.69;5011660;28;20034;-47
2023/07/31 00:22:51;;;;;;;26.10;5.15;;;;;;;20.69;82.26;101031.78;5011739;28;20049;-43
2023/07/31 00:25:16;;;;;;;22.00;5.10;;;;;;;20.74;82.08;101029.03;5012441;28;20049;-45
2023/07/31 00:27:44;;;;;;;20.83;5.07;;;;;;;20.56;82.69;101025.03;5012207;28;20116;-45
2023/07/31 00:30:10;;;;;;;22.15;5.32;;;;;;;20.92;81.52;101021.44;5011890;28;20045;-44
2023/07/31 00:32:35;;;;;;;20.63;4.63;;;;;;;20.77;81.53;101020.97;5011304;28;20624;-44
2023/07/31 00:35:01;;;;;;;20.48;4.93;;;;;;;20.82;81.24;101017.31;5011791;28;20064;-48
2023/07/31 00:37:27;;;;;;;16.38;4.15;;;;;;;20.87;80.75;101031.28;5011517;28;20080;-45
2023/07/31 00:39:52;;;;;;;17.95;4.45;;;;;;;20.87;80.32;101031.28;5011587;28;20030;-46
2023/07/31 00:42:18;;;;;;;21.65;4.80;;;;;;;20.77;81.50;101027.16;5011178;28;20485;-47
2023/07/31 00:44:44;;;;;;;21.27;4.97;;;;;;;20.59;82.01;101023.19;5011045;28;20134;-43
2023/07/31 00:47:09;;;;;;;21.40;4.80;;;;;;;20.79;81.03;101030.66;5011830;28;20052;-44
2023/07/31 00:49:35;;;;;;;21.58;4.70;;;;;;;20.87;80.82;101027.78;5011126;28;20041;-47
2023/07/31 00:52:02;;;;;;;22.83;4.68;;;;;;;20.73;80.58;101014.91;5011125;28;20038;-46
2023/07/31 00:54:27;;;;;;;24.35;4.68;;;;;;;20.74;81.50;101021.06;5010976;28;20136;-48
2023/07/31 00:56:54;;;;;;;24.63;4.95;;;;;;;20.93;80.55;101017.00;5011679;28;20544;-44
2023/07/31 00:59:19;;;;;;;18.00;4.75;;;;;;;20.62;81.57;101022.22;5011084;28;20038;-49
2023/07/31 01:01:46;;;;;;;18.83;4.47;;;;;;;20.75;81.29;101021.00;5008392;28;20053;-46
2023/07/31 01:04:11;;;;;;;24.67;4.70;;;;;;;20.38;82.36;101029.00;5011496;28;20052;-43
2023/07/31 01:06:43;;;;;;;19.75;5.00;;;;;;;20.33;83.64;101022.97;5011034;28;20501;-46
2023/07/31 01:09:17;;;;;;;24.63;5.22;;;;;;;20.62;81.91;101017.81;5011494;28;20048;-45
2023/07/31 01:12:01;;;;;;;21.42;4.25;;;;;;;20.70;81.75;101016.75;5010312;28;20404;-44
2023/07/31 01:14:26;;;;;;;16.33;4.47;;;;;;;20.85;80.84;101019.00;5010755;28;20061;-49
2023/07/31 01:16:51;;;;;;;18.67;4.70;;;;;;;20.62;81.45;101012.50;5011395;28;20512;-44
2023/07/31 01:19:23;;;;;;;21.60;4.72;;;;;;;20.63;81.27;101010.72;5011062;28;20040;-45
2023/07/31 01:21:54;;;;;;;19.48;4.40;;;;;;;20.54;81.62;101011.00;5010163;28;20034;-46
2023/07/31 01:24:25;;;;;;;20.70;4.60;;;;;;;20.73;80.89;101011.38;5011004;28;20264;-44
2023/07/31 01:27:09;;;;;;;16.92;4.35;;;;;;;20.86;79.92;101013.66;5010814;28;20034;-41
2023/07/31 01:29:43;;;;;;;20.65;5.10;;;;;;;20.44;81.99;101014.75;5010601;28;20099;-44
2023/07/31 01:32:10;;;;;;;17.50;4.82;;;;;;;20.56;81.47;101003.84;5009364;28;20061;-46
2023/07/31 01:34:36;;;;;;;18.83;4.88;;;;;;;20.61;81.30;100999.34;5010399;28;20045;-47
2023/07/31 01:37:02;;;;;;;21.88;5.18;;;;;;;20.72;80.35;101004.34;5009976;28;20076;-45
2023/07/31 01:39:28;;;;;;;18.05;5.03;;;;;;;20.59;81.14;100995.84;5010326;28;20041;-43
2023/07/31 01:41:53;;;;;;;18.75;4.80;;;;;;;20.77;80.40;101000.66;5010494;28;20037;-46
2023/07/31 01:44:18;;;;;;;18.95;4.47;;;;;;;20.86;80.30;100988.97;5009425;28;20298;-46
2023/07/31 01:46:44;;;;;;;21.02;5.10;;;;;;;20.82;80.00;100987.28;5010322;28;20347;-45
2023/07/31 01:49:09;;;;;;;20.15;4.70;;;;;;;20.79;79.90;100979.44;5010378;28;20386;-42
2023/07/31 01:51:35;;;;;;;16.75;4.53;;;;;;;20.54;80.83;100982.72;5009710;28;20571;-45
2023/07/31 01:54:01;;;;;;;20.08;4.57;;;;;;;20.54;80.65;100968.59;5010645;28;20515;-44
2023/07/31 01:56:27;;;;;;;23.30;5.00;;;;;;;20.62;80.70;100964.84;5009936;28;20080;-43
2023/07/31 01:58:52;;;;;;;18.85;4.47;;;;;;;20.84;79.08;100957.19;5010622;28;20061;-46
2023/07/31 02:01:17;;;;;;;18.80;4.43;;;;;;;20.59;80.02;100959.63;5009854;28;20056;-42
2023/07/31 02:03:43;;;;;;;16.08;4.40;;;;;;;20.62;80.29;100948.94;5009697;28;20034;-47
2023/07/31 02:06:08;;;;;;;18.02;4.18;;;;;;;20.71;79.33;100942.53;5010435;28;20072;-42
2023/07/31 02:08:33;;;;;;;15.77;4.53;;;;;;;20.67;79.74;100942.66;5024977;28;20026;-42
2023/07/31 02:10:59;;;;;;;18.23;4.78;;;;;;;20.59;79.76;100937.56;5009686;28;20515;-48
2023/07/31 02:13:25;;;;;;;23.42;5.32;;;;;;;20.70;79.54;100931.97;5009247;28;20041;-48
2023/07/31 02:15:50;;;;;;;19.65;5.00;;;;;;;20.69;78.88;100936.41;5010122;28;20500;-42
2023/07/31 02:18:16;;;;;;;24.73;5.35;;;;;;;20.75;79.20;100938.88;5010428;28;20492;-47
2023/07/31 02:20:41;;;;;;;20.75;5.05;;;;;;;20.63;80.46;100937.44;5009532;28;20556;-47
2023/07/31 02:23:06;;;;;;;23.17;4.95;;;;;;;20.86;79.17;100944.75;5009806;28;20560;-42
2023/07/31 02:25:32;;;;;;;19.27;5.18;;;;;;;20.76;79.13;100931.81;5009881;28;20080;-43
2023/07/31 02:27:57;;;;;;;19.33;5.30;;;;;;;20.78;79.26;100940.59;5010432;28;20057;-46
2023/07/31 02:30:23;;;;;;;22.42;4.95;;;;;;;20.96;78.19;100935.66;5010578;28;20033;-47
2023/07/31 02:32:48;;;;;;;20.83;4.88;;;;;;;20.62;79.39;100945.41;5010376;28;20044;-43
2023/07/31 02:35:15;;;;;;;22.17;4.63;;;;;;;20.91;77.93;100937.56;5010095;28;20440;-44
2023/07/31 02:37:41;;;;;;;20.63;5.13;;;;;;;21.16;77.24;100931.59;5010090;28;20037;-46
2023/07/31 02:40:07;;;;;;;22.13;4.75;;;;;;;21.02;77.20;100927.53;5011012;28;20060;-43
2023/07/31 02:42:32;;;;;;;15.70;5.03;;;;;;;20.67;78.33;100928.47;5009987;28;20077;-48
2023/07/31 02:44:58;;;;;;;22.67;4.90;;;;;;;20.47;78.92;100928.16;5010083;28;20044;-46
2023/07/31 02:47:23;;;;;;;16.73;4.63;;;;;;;20.92;77.00;100926.03;5013745;28;20120;-43
2023/07/31 02:49:48;;;;;;;17.88;5.10;;;;;;;20.92;76.28;100920.72;5016402;28;20029;-44
2023/07/31 02:52:14;;;;;;;17.33;4.47;;;;;;;20.75;76.55;100922.09;5015849;28;20026;-45
2023/07/31 02:54:39;;;;;;;16.30;4.28;;;;;;;20.93;75.37;100911.88;5015924;28;20034;-43
2023/07/31 02:57:05;;;;;;;18.20;4.65;;;;;;;20.92;75.46;100903.97;5016262;28;20472;-43
2023/07/31 02:59:31;;;;;;;18.25;4.47;;;;;;;20.95;75.88;100903.88;5015753;28;20423;-47
2023/07/31 03:01:56;;;;;;;18.50;4.53;;;;;;;20.67;76.72;100905.56;5015080;28;20057;-44
2023/07/31 03:04:22;;;;;;;19.25;4.55;;;;;;;20.79;75.91;100898.16;5016135;28;20496;-44
2023/07/31 03:06:47;;;;;;;16.42;4.13;;;;;;;20.91;75.87;100900.47;5015610;28;20038;-44
2023/07/31 03:09:12;;;;;;;16.08;4.38;;;;;;;20.90;75.72;100889.91;5016086;28;20036;-44
2023/07/31 03:11:38;;;;;;;19.83;4.63;;;;;;;21.07;74.70;100898.22;5015272;28;20064;-46
2023/07/31 03:14:03;;;;;;;16.65;4.60;;;;;;;21.02;75.89;100894.84;5016260;28;20049;-44
2023/07/31 03:16:28;;;;;;;18.35;4.90;;;;;;;20.81;76.67;100892.78;5015788;28;20044;-45
2023/07/31 03:18:54;;;;;;;19.63;4.35;;;;;;;20.86;76.01;100894.41;5015996;28;20528;-43
2023/07/31 03:21:19;;;;;;;16.88;4.45;;;;;;;21.04;75.51;100888.56;5015377;28;20029;-43
2023/07/31 03:23:45;;;;;;;21.10;4.50;;;;;;;20.86;76.32;100886.44;5015400;28;20140;-45
2023/07/31 03:26:10;;;;;;;20.42;4.72;;;;;;;20.81;76.63;100888.38;5016007;28;20500;-42
2023/07/31 03:28:36;;;;;;;18.58;4.30;;;;;;;20.77;77.17;100889.38;5015397;28;20066;-43
2023/07/31 03:31:01;;;;;;;17.30;4.65;;;;;;;20.69;77.26;100891.34;5015141;28;20030;-42
2023/07/31 03:33:26;;;;;;;16.58;4.47;;;;;;;20.75;77.63;100885.88;5015012;28;20560;-42
2023/07/31 03:35:52;;;;;;;14.77;4.15;;;;;;;21.05;76.04;100879.69;5015731;28;20113;-43
2023/07/31 03:38:18;;;;;;;21.67;4.38;;;;;;;20.91;76.52;100881.91;5015790;28;20030;-43
2023/07/31 03:40:43;;;;;;;17.90;4.22;;;;;;;20.73;77.22;100889.50;5015205;28;20104;-45
2023/07/31 03:43:08;;;;;;;16.58;4.20;;;;;;;20.73;77.56;100868.31;5014336;28;20034;-51
2023/07/31 03:45:34;;;;;;;16.95;4.28;;;;;;;20.94;76.78;100867.69;5014986;28;20042;-45
2023/07/31 03:47:59;;;;;;;15.43;4.53;;;;;;;21.19;75.62;100855.47;5015811;28;20048;-47
2023/07/31 03:50:25;;;;;;;16.35;4.05;;;;;;;21.17;75.69;100856.41;5015313;28;20034;-45
2023/07/31 03:52:50;;;;;;;18.02;4.50;;;;;;;21.05;75.99;100853.19;5015334;28;20033;-43
2023/07/31 03:55:16;;;;;;;14.23;3.78;;;;;;;20.79;77.67;100857.53;5015440;28;20030;-45
2023/07/31 03:57:41;;;;;;;13.63;3.17;;;;;;;20.71;78.15;100857.75;5013656;28;20129;-45
2023/07/31 04:00:07;;;;;;;9.57;2.85;;;;;;;20.77;78.39;100846.97;5012304;28;20061;-40
2023/07/31 04:02:33;;;;;;;11.57;2.95;;;;;;;20.75;77.79;100846.16;5011397;28;20084;-44
2023/07/31 04:04:58;;;;;;;6.93;2.33;;;;;;;20.69;78.59;100841.03;5012533;28;20030;-45
2023/07/31 04:07:23;;;;;;;7.63;2.25;;;;;;;20.89;77.94;100837.81;5012075;28;20129;-44
2023/07/31 04:09:49;;;;;;;7.32;2.42;;;;;;;20.65;78.53;100845.56;5012569;28;20048;-48
2023/07/31 04:12:14;;;;;;;6.97;2.20;;;;;;;20.70;78.87;100839.25;5011627;28;20038;-45
2023/07/31 04:14:39;;;;;;;7.38;1.98;;;;;;;20.69;79.27;100832.22;5012243;28;20038;-43
2023/07/31 04:17:05;;;;;;;7.85;1.83;;;;;;;20.88;78.60;100826.34;5012837;28;20033;-46
2023/07/31 04:19:30;;;;;;;7.57;2.00;;;;;;;20.67;79.65;100821.69;5012187;28;20052;-43
2023/07/31 04:21:56;;;;;;;4.80;1.80;;;;;;;20.87;78.43;100821.94;5012312;28;20084;-43
2023/07/31 04:24:24;;;;;;;4.55;1.92;;;;;;;20.76;79.08;100815.22;5012840;28;20111;-45
2023/07/31 04:26:53;;;;;;;5.75;1.83;;;;;;;20.69;80.00;100818.97;5013493;28;20040;-45
2023/07/31 04:29:19;;;;;;;5.35;1.50;;;;;;;20.36;80.88;100807.56;5015130;28;20064;-44
2023/07/31 04:31:44;;;;;;;3.80;1.27;;;;;;;20.57;80.66;100806.94;5010922;28;20488;-42
2023/07/31 04:34:09;;;;;;;2.85;1.10;;;;;;;20.52;80.77;100806.22;5011869;28;20069;-44
2023/07/31 04:36:35;;;;;;;2.13;0.90;;;;;;;20.62;80.38;100803.25;5011643;28;20053;-43
2023/07/31 04:39:01;;;;;;;3.05;1.20;;;;;;;20.90;79.55;100802.44;5012053;28;20088;-44
2023/07/31 04:41:26;;;;;;;2.15;0.90;;;;;;;20.81;79.95;100814.16;5011097;28;20038;-43
2023/07/31 04:43:52;;;;;;;4.22;1.20;;;;;;;20.67;80.22;100822.50;5012045;28;20042;-46
2023/07/31 04:46:17;;;;;;;3.42;1.10;;;;;;;20.51;81.35;100810.63;5011735;28;20049;-44
2023/07/31 04:48:43;;;;;;;3.55;1.30;;;;;;;20.79;79.74;100802.78;5010515;28;20488;-44
2023/07/31 04:51:09;;;;;;;2.85;1.30;;;;;;;20.55;80.43;100801.69;5011211;28;20034;-49
2023/07/31 04:53:34;;;;;;;3.08;1.27;;;;;;;20.69;79.95;100800.41;5010981;28;20046;-48
2023/07/31 04:56:00;;;;;;;2.67;1.45;;;;;;;20.37;80.34;100807.50;5011667;28;20068;-45
2023/07/31 04:58:25;;;;;;;4.00;1.58;;;;;;;20.43;80.74;100796.72;5011452;28;20107;-46
2023/07/31 05:00:50;;;;;;;2.53;1.40;;;;;;;20.45;80.24;100800.22;5011186;28;20129;-45
2023/07/31 05:03:16;;;;;;;4.78;1.90;;;;;;;20.21;81.29;100793.78;5010885;28;20034;-44
2023/07/31 05:05:41;;;;;;;5.03;1.70;;;;;;;20.40;80.16;100794.19;5010826;28;20033;-46
2023/07/31 05:08:06;;;;;;;3.65;1.70;;;;;;;20.51;79.97;100791.22;5011282;28;20092;-47
2023/07/31 05:10:32;;;;;;;7.43;4.75;;;;;;;20.57;79.49;100793.69;5010182;28;20484;-46
2023/07/31 05:12:57;;;;;;;3.88;2.10;;;;;;;20.32;80.31;100782.03;5010570;28;20033;-46
2023/07/31 05:15:22;;;;;;;5.18;2.10;;;;;;;20.30;80.46;100781.22;5011176;28;20380;-45
2023/07/31 05:17:48;;;;;;;5.95;2.38;;;;;;;20.30;80.65;100782.09;5010940;28;20467;-45
2023/07/31 05:20:14;;;;;;;4.53;2.03;;;;;;;20.35;80.29;100785.50;5011799;28;20044;-43
2023/07/31 05:22:40;;;;;;;4.40;2.08;;;;;;;20.51;80.16;100776.19;5010835;28;20104;-48
2023/07/31 05:25:05;;;;;;;4.40;2.35;;;;;;;20.42;80.27;100771.19;5011486;28;20052;-45
2023/07/31 05:27:31;;;;;;;9.02;2.10;;;;;;;19.97;81.28;100775.06;5010869;28;20038;-44
2023/07/31 05:29:56;;;;;;;3.75;1.80;;;;;;;20.22;80.73;100763.78;5011361;28;20030;-49
2023/07/31 05:32:22;;;;;;;3.83;2.03;;;;;;;20.45;80.43;100762.28;5013048;28;20045;-45
2023/07/31 05:34:47;;;;;;;3.60;1.80;;;;;;;20.10;81.66;100757.94;5013749;28;20559;-48
2023/07/31 05:37:13;;;;;;;4.63;1.80;;;;;;;20.37;80.94;100759.00;5012495;28;20026;-43
2023/07/31 05:39:39;;;;;;;2.85;1.65;;;;;;;20.33;80.65;100749.38;5010566;28;20033;-45
2023/07/31 05:42:04;;;;;;;4.72;1.70;;;;;;;20.23;81.50;100754.06;5010234;28;20034;-44
2023/07/31 05:44:30;;;;;;;2.67;1.58;;;;;;;20.38;80.50;100748.34;5010294;28;20091;-44
2023/07/31 05:46:55;;;;;;;3.05;1.42;;;;;;;20.42;80.93;100750.00;5010670;28;20058;-50
2023/07/31 05:49:21;;;;;;;2.88;1.25;;;;;;;20.65;80.26;100747.53;5009694;28;20037;-44
2023/07/31 05:51:46;;;;;;;2.50;1.20;;;;;;;20.43;80.92;100742.94;5009764;28;20087;-44
2023/07/31 05:54:11;;;;;;;3.40;1.20;;;;;;;20.63;80.56;100748.50;5010508;28;20041;-46
2023/07/31 05:56:36;;;;;;;2.63;1.15;;;;;;;20.76;79.92;100731.31;5010070;28;20084;-42
2023/07/31 05:59:02;;;;;;;1.92;0.90;;;;;;;20.63;80.77;100743.19;5010374;28;20030;-45
2023/07/31 06:01:28;;;;;;;2.20;1.02;;;;;;;20.67;80.31;100738.69;5009250;28;20049;-44
2023/07/31 06:03:53;;;;;;;1.40;0.90;;;;;;;20.63;80.48;100746.72;5010254;28;20029;-44
2023/07/31 06:06:18;;;;;;;2.75;1.10;;;;;;;20.50;81.08;100742.69;5010343;28;20096;-43
2023/07/31 06:08:44;;;;;;;1.60;0.80;;;;;;;20.73;80.31;100735.84;5010241;28;20030;-48
2023/07/31 06:11:09;;;;;;;1.83;0.90;;;;;;;20.67;80.81;100744.84;5009824;28;20420;-45
2023/07/31 06:13:35;;;;;;;1.30;0.80;;;;;;;20.83;80.03;100737.28;5009813;28;20129;-44
2023/07/31 06:16:04;;;;;;;2.03;0.80;;;;;;;20.66;80.75;100737.81;5010525;28;20077;-44
2023/07/31 06:18:30;;;;;;;1.60;1.00;;;;;;;20.96;80.13;100736.00;5010032;28;20038;-44
2023/07/31 06:20:55;;;;;;;1.15;0.60;;;;;;;20.70;81.08;100723.56;5009663;28;20042;-48
2023/07/31 06:23:21;;;;;;;1.20;0.73;;;;;;;21.02;80.26;100730.50;5010218;28;20607;-44
2023/07/31 06:25:46;;;;;;;1.23;0.52;;;;;;;21.07;80.38;100725.91;5010593;28;20571;-46
2023/07/31 06:28:12;;;;;;;1.10;0.60;;;;;;;20.94;80.70;100714.84;5010172;28;20500;-43
2023/07/31 06:30:37;;;;;;;1.00;0.60;;;;;;;21.19;79.69;100719.38;5010368;28;20029;-46
2023/07/31 06:33:02;;;;;;;1.17;0.60;;;;;;;21.26;79.52;100724.44;5010254;28;20042;-43
2023/07/31 06:35:28;;;;;;;1.73;0.70;;;;;;;21.01;80.55;100713.72;5010056;28;20038;-44
2023/07/31 06:37:53;;;;;;;2.35;0.60;;;;;;;21.08;80.28;100718.84;5010905;28;20034;-44
2023/07/31 06:40:19;;;;;;;1.02;0.60;;;;;;;20.96;81.09;100706.84;5010371;28;20037;-46
2023/07/31 06:42:44;;;;;;;3.88;0.68;;;;;;;20.77;82.29;100705.69;5009253;28;20053;-44
2023/07/31 06:45:10;;;;;;;1.58;0.70;;;;;;;21.20;80.68;100710.53;5009771;28;20038;-45
2023/07/31 06:47:36;;;;;;;1.73;0.60;;;;;;;21.18;80.83;100699.09;5009519;28;20041;-48
2023/07/31 06:50:01;;;;;;;2.05;0.73;;;;;;;21.00;81.18;100713.78;5009757;28;20042;-46
2023/07/31 06:52:26;;;;;;;1.75;0.65;;;;;;;20.81;81.76;100709.97;5008980;28;20030;-46
2023/07/31 06:55:02;;;;;;;0.63;0.50;;;;;;;21.15;80.73;100709.78;5009765;28;20034;-43
2023/07/31 06:57:28;;;;;;;1.88;0.70;;;;;;;21.34;80.20;100705.63;5009589;28;20579;-44
2023/07/31 06:59:53;;;;;;;3.10;0.70;;;;;;;21.06;81.25;100700.31;5010080;28;20066;-44
2023/07/31 07:02:18;;;;;;;1.50;0.52;;;;;;;21.12;80.93;100702.78;5009143;28;20061;-46
2023/07/31 07:04:44;;;;;;;1.55;0.50;;;;;;;21.37;80.25;100702.88;4848419;28;20046;-50
2023/07/31 07:07:09;;;;;;;0.75;0.50;;;;;;;21.03;81.42;100701.31;4796294;28;20040;-49
2023/07/31 07:09:35;;;;;;;1.08;0.50;;;;;;;21.22;81.08;100700.75;4665911;28;20033;-47
2023/07/31 07:12:00;;;;;;;1.02;0.47;;;;;;;21.49;80.25;100705.09;4668035;28;23684;-49
2023/07/31 07:14:26;;;;;;;2.17;0.50;;;;;;;21.33;80.92;100702.13;4978421;28;20069;-44
2023/07/31 07:16:52;;;;;;;0.73;0.40;;;;;;;21.53;80.72;100698.75;5009850;28;20037;-45
2023/07/31 07:19:17;;;;;;;1.00;0.50;;;;;;;21.67;80.38;100707.13;5009531;28;20515;-45
2023/07/31 07:21:42;;;;;;;0.95;0.40;;;;;;;21.18;81.33;100713.22;5008913;28;20046;-46
2023/07/31 07:24:08;;;;;;;0.82;0.40;;;;;;;21.48;80.25;100702.50;5009691;28;20500;-45
2023/07/31 07:26:33;;;;;;;0.70;0.45;;;;;;;21.18;81.28;100704.38;5009468;28;20041;-46
2023/07/31 07:29:01;;;;;;;0.30;0.30;;;;;;;21.23;80.91;100695.38;5009385;28;20519;-48
2023/07/31 07:31:26;;;;;;;0.70;0.40;;;;;;;21.19;81.96;100698.19;5008486;28;20030;-44
2023/07/31 07:33:51;;;;;;;2.33;0.40;;;;;;;21.49;80.68;100697.16;5025307;28;20041;-43
2023/07/31 07:36:17;;;;;;;0.65;0.40;;;;;;;21.31;81.51;100698.63;5024849;28;20034;-47
2023/07/31 07:38:42;;;;;;;0.73;0.40;;;;;;;21.64;80.47;100696.63;5012198;28;20161;-47
2023/07/31 07:41:08;;;;;;;1.40;0.38;;;;;;;21.63;80.55;100705.50;5006661;28;20041;-43
2023/07/31 07:43:33;;;;;;;0.60;0.40;;;;;;;21.55;79.94;100704.03;5011750;28;20034;-43
2023/07/31 07:45:58;;;;;;;1.92;0.50;;;;;;;21.37;81.39;100706.38;5013126;28;20038;-45
2023/07/31 07:48:25;;;;;;;0.80;0.50;;;;;;;21.61;81.00;100698.50;5031909;28;20077;-47
2023/07/31 07:50:50;;;;;;;2.90;0.73;;;;;;;21.30;82.23;100698.69;5031906;28;20029;-46
2023/07/31 07:53:15;;;;;;;1.58;0.70;;;;;;;21.35;81.79;100702.03;5007557;28;20041;-43
2023/07/31 07:55:41;;;;;;;1.70;0.68;;;;;;;21.33;81.70;100707.41;5011789;28;20555;-48
2023/07/31 07:58:06;;;;;;;3.13;0.90;;;;;;;21.09;83.34;100710.84;5024934;28;20403;-44
2023/07/31 08:00:31;;;;;;;3.17;1.00;;;;;;;21.45;82.90;100703.47;5025640;28;20042;-44
2023/07/31 08:02:58;;;;;;;4.65;1.40;;;;;;;21.32;82.48;100695.06;5010307;28;20057;-48
2023/07/31 08:05:23;;;;;;;2.78;1.10;;;;;;;21.54;82.27;100689.03;5011574;28;20125;-46
2023/07/31 08:07:49;;;;;;;3.28;1.20;;;;;;;21.90;81.40;100698.34;5012426;28;20116;-43
2023/07/31 08:10:14;;;;;;;6.45;1.60;;;;;;;21.60;81.94;100683.50;5012353;28;20116;-44
2023/07/31 08:12:39;;;;;;;4.63;1.63;;;;;;;21.90;81.25;100678.88;5010997;28;20522;-48
2023/07/31 08:15:05;;;;;;;6.47;1.95;;;;;;;21.62;81.88;100690.50;5021961;28;20604;-43
2023/07/31 08:17:31;;;;;;;6.18;1.75;;;;;;;21.86;81.21;100679.00;5030999;28;20041;-43
2023/07/31 08:19:58;;;;;;;6.88;1.80;;;;;;;21.93;81.08;100674.34;5031883;28;20083;-44
2023/07/31 08:22:23;;;;;;;8.93;2.20;;;;;;;21.58;82.02;100686.22;5018254;28;20049;-42
2023/07/31 08:24:48;;;;;;;12.38;2.35;;;;;;;21.35;83.09;100687.00;5011677;28;20057;-45
2023/07/31 08:27:14;;;;;;;7.88;2.13;;;;;;;21.69;81.74;100675.22;5012491;28;20042;-42
2023/07/31 08:29:39;;;;;;;11.98;2.28;;;;;;;21.35;83.57;100680.81;5011342;28;20038;-43
2023/07/31 08:32:05;;;;;;;13.48;2.60;;;;;;;21.52;83.00;100683.78;5008737;28;20045;-48
2023/07/31 08:34:30;;;;;;;8.73;2.20;;;;;;;21.55;83.45;100685.44;4991770;28;20165;-49
2023/07/31 08:36:56;;;;;;;10.93;2.20;;;;;;;21.52;82.59;100680.28;5026006;28;20125;-45
2023/07/31 08:39:21;;;;;;;8.93;2.00;;;;;;;21.85;82.25;100669.31;5031588;28;20038;-47
2023/07/31 08:41:47;;;;;;;11.52;1.92;;;;;;;21.70;82.55;100661.91;5030959;28;20041;-42
2023/07/31 08:44:13;;;;;;;11.27;2.00;;;;;;;21.63;82.78;100668.34;5030860;28;20041;-44
2023/07/31 08:46:40;;;;;;;9.73;2.03;;;;;;;21.90;82.19;100663.84;5030877;28;20042;-42
2023/07/31 08:49:06;;;;;;;7.47;1.75;;;;;;;22.00;81.79;100661.75;5031274;28;20085;-45
2023/07/31 08:51:34;;;;;;;8.48;2.00;;;;;;;22.05;81.46;100671.28;5031149;28;20391;-47
2023/07/31 08:53:59;;;;;;;9.18;2.17;;;;;;;21.76;82.11;100666.13;5032637;28;20033;-45
2023/07/31 08:56:25;;;;;;;10.65;2.20;;;;;;;22.09;81.22;100674.69;5031612;28;20045;-43
2023/07/31 08:58:53;;;;;;;13.73;2.35;;;;;;;22.17;81.03;100672.59;5031440;28;20095;-43
2023/07/31 09:01:18;;;;;;;11.52;2.33;;;;;;;22.11;80.51;100667.53;5030507;28;20041;-44
2023/07/31 09:03:44;;;;;;;8.75;1.92;;;;;;;22.17;80.95;100670.81;5030291;28;20377;-41
2023/07/31 09:06:12;;;;;;;9.07;2.35;;;;;;;21.96;81.39;100666.28;5031182;28;20034;-49
2023/07/31 09:08:42;;;;;;;9.20;2.17;;;;;;;22.03;81.38;100670.47;5030420;28;20040;-43
2023/07/31 09:11:07;;;;;;;10.13;2.28;;;;;;;22.14;81.05;100670.09;5029997;28;20108;-44
2023/07/31 09:13:33;;;;;;;10.85;2.28;;;;;;;21.95;81.27;100661.94;5030112;28;20167;-44
2023/07/31 09:15:58;;;;;;;10.77;2.50;;;;;;;21.81;81.70;100670.34;5030904;28;20029;-46
2023/07/31 09:18:24;;;;;;;7.43;2.10;;;;;;;22.02;81.31;100671.38;5030137;28;20064;-42
2023/07/31 09:21:06;;;;;;;8.88;1.77;;;;;;;22.04;81.27;100677.50;5030479;28;20033;-43
2023/07/31 09:23:42;;;;;;;9.05;1.73;;;;;;;22.48;80.79;100664.34;5030158;28;20041;-45
2023/07/31 09:26:07;;;;;;;11.93;2.28;;;;;;;22.21;80.54;100660.94;5012003;28;20033;-47
2023/07/31 09:28:32;;;;;;;9.95;2.10;;;;;;;22.12;80.97;100675.44;5020013;28;20030;-44
2023/07/31 09:30:58;;;;;;;4.60;1.55;;;;;;;22.41;79.82;100663.72;5029416;28;20021;-44
2023/07/31 09:33:23;;;;;;;10.15;2.00;;;;;;;22.44;79.87;100654.78;5009912;28;20412;-47
2023/07/31 09:35:48;;;;;;;8.15;1.90;;;;;;;22.18;80.76;100667.25;5010722;28;20412;-43
2023/07/31 09:38:15;;;;;;;9.73;1.95;;;;;;;22.18;80.13;100659.28;5013680;28;20514;-45
2023/07/31 09:40:45;;;;;;;6.22;1.73;;;;;;;22.29;79.90;100655.34;5029749;28;20086;-47
2023/07/31 09:43:13;;;;;;;8.48;2.17;;;;;;;22.00;81.62;100659.97;5014754;28;20034;-44
2023/07/31 09:45:41;;;;;;;8.30;1.88;;;;;;;22.45;80.19;100660.00;5016083;28;20079;-44
2023/07/31 09:48:11;;;;;;;8.00;1.85;;;;;;;22.15;80.05;100663.81;5030498;28;20037;-44
2023/07/31 09:50:39;;;;;;;9.00;1.92;;;;;;;22.21;80.06;100664.47;5029580;28;20041;-40
2023/07/31 09:53:08;;;;;;;9.13;2.30;;;;;;;22.22;79.92;100655.59;5029912;28;20040;-44
2023/07/31 09:55:34;;;;;;;9.00;1.90;;;;;;;22.07;80.63;100658.81;5028753;28;20033;-43
2023/07/31 09:58:04;;;;;;;8.48;2.28;;;;;;;22.13;80.84;100655.94;5030063;28;20397;-45
2023/07/31 10:00:30;;;;;;;9.02;1.83;;;;;;;22.26;80.41;100651.88;5029030;28;20047;-43
2023/07/31 10:02:58;;;;;;;8.77;2.00;;;;;;;22.34;80.03;100658.69;5029470;28;20030;-45
2023/07/31 10:05:31;;;;;;;7.85;1.70;;;;;;;22.11;81.10;100659.56;5029556;28;20041;-44
2023/07/31 10:07:57;;;;;;;6.55;1.83;;;;;;;22.26;80.33;100632.44;5029850;28;20077;-43
2023/07/31 10:10:22;;;;;;;9.00;1.70;;;;;;;22.25;80.83;100642.19;5021490;28;20405;-43
2023/07/31 10:12:53;;;;;;;8.70;1.70;;;;;;;22.27;80.21;100650.09;5009340;28;20029;-43
2023/07/31 10:15:19;;;;;;;6.90;1.80;;;;;;;22.39;80.96;100654.91;4989754;28;20124;-44
2023/07/31 10:17:47;;;;;;;8.48;2.00;;;;;;;22.30;80.65;100657.09;5013270;28;20108;-43
2023/07/31 10:20:16;;;;;;;7.60;2.00;;;;;;;22.35;79.95;100663.06;5027594;28;20092;-41
2023/07/31 10:22:42;;;;;;;6.78;2.00;;;;;;;22.75;79.37;100663.28;5009992;28;20132;-47
2023/07/31 10:25:09;;;;;;;7.82;1.98;;;;;;;22.48;79.95;100656.38;5011293;28;20196;-42
2023/07/31 10:27:36;;;;;;;9.95;2.17;;;;;;;22.66;79.47;100659.16;5011451;28;20044;-43
2023/07/31 10:30:04;;;;;;;9.18;2.17;;;;;;;22.82;77.81;100648.81;5011171;28;20083;-42
2023/07/31 10:32:30;;;;;;;8.43;2.10;;;;;;;23.01;77.42;100663.09;5028483;28;20040;-42
2023/07/31 10:34:56;;;;;;;9.43;2.10;;;;;;;22.93;77.70;100659.03;5022259;28;20030;-44
2023/07/31 10:37:27;;;;;;;7.95;2.22;;;;;;;22.68;77.56;100653.81;5012879;28;20038;-47
2023/07/31 10:40:01;;;;;;;9.30;2.30;;;;;;;22.51;78.62;100654.44;4992233;28;20040;-46
2023/07/31 10:42:38;;;;;;;7.40;2.03;;;;;;;22.66;78.00;100656.50;5003002;28;20435;-48
2023/07/31 10:45:10;;;;;;;7.50;2.22;;;;;;;23.01;77.28;100657.78;5009514;28;20407;-44
2023/07/31 10:47:42;;;;;;;8.82;2.13;;;;;;;22.97;76.50;100657.97;5009700;28;20041;-42
2023/07/31 10:50:11;;;;;;;9.38;2.20;;;;;;;22.61;77.97;100666.47;5028166;28;20037;-43
2023/07/31 10:52:36;;;;;;;7.03;1.98;;;;;;;22.64;77.36;100655.69;5027639;28;20038;-43
2023/07/31 10:55:32;;;;;;;8.55;2.10;;;;;;;22.76;77.57;100651.72;5029418;28;20403;-42
2023/07/31 10:58:18;;;;;;;8.98;2.20;;;;;;;22.33;80.20;100655.16;5029141;28;20072;-43
2023/07/31 11:00:44;;;;;;;9.05;2.20;;;;;;;22.47;79.57;100657.28;5028404;28;20045;-44
2023/07/31 11:03:16;;;;;;;7.20;1.88;;;;;;;22.42;79.38;100662.78;5028554;28;20415;-45
2023/07/31 11:05:48;;;;;;;6.72;1.70;;;;;;;22.57;80.08;100640.91;5025932;28;20045;-50
2023/07/31 11:08:22;;;;;;;8.43;1.88;;;;;;;22.83;78.37;100637.25;5011460;28;20049;-46
2023/07/31 11:11:04;;;;;;;7.57;2.17;;;;;;;22.50;79.67;100636.81;5028378;28;20041;-44
2023/07/31 11:13:39;;;;;;;11.30;1.98;;;;;;;23.02;77.98;100634.72;5032009;28;20439;-45
2023/07/31 11:16:04;;;;;;;5.97;1.63;;;;;;;22.83;78.48;100631.06;5032878;28;20029;-45
2023/07/31 11:18:29;;;;;;;8.82;2.00;;;;;;;22.55;79.46;100633.97;5032732;28;20529;-44